Terminal Aerodrome Forecast
Issued by NWS

Home | Current Version | Previous Version | Text Only | Print | Product List | Glossary On
Versions: 1 2 3 4 5 6 7 8 9 10 11 12 13 14 15 16
000
FTUS43 KLSX 271500 AAA
TAFCPS
TAF AMD
KCPS 271546Z 2716/2812 27014G20KT P6SM SCT009 OVC015
      TEMPO 2716/2717 3SM BR BKN009
     FM271900 30012KT P6SM OVC020
     FM272100 30010KT P6SM OVC040
     FM280600 33005KT P6SM BKN150=

USA.gov is the U.S. government's official web portal to all federal, state and local government web resources and services.